createdAt,value
2022-12-13T00:00:57.646Z,1.10
2022-12-13T00:03:31.113Z,1.00
2022-12-13T00:06:01.301Z,0.90
2022-12-13T00:08:32.428Z,1.00
2022-12-13T00:11:03.370Z,0.90
2022-12-13T00:13:33.893Z,0.90
2022-12-13T00:16:06.325Z,0.90
2022-12-13T00:18:39.352Z,0.90
2022-12-13T00:21:10.997Z,0.90
2022-12-13T00:23:41.275Z,0.90
2022-12-13T00:26:15.464Z,0.90
2022-12-13T00:28:46.365Z,0.90
2022-12-13T00:31:56.219Z,0.90
2022-12-13T00:34:10.263Z,0.90
2022-12-13T00:36:40.485Z,0.90
2022-12-13T00:39:13.074Z,0.90
2022-12-13T00:41:43.880Z,0.80
2022-12-13T00:44:15.360Z,0.80
2022-12-13T00:46:46.026Z,0.80
2022-12-13T00:49:18.985Z,0.80
2022-12-13T00:51:49.736Z,0.90
2022-12-13T00:54:20.306Z,0.80
2022-12-13T00:56:51.433Z,0.70
2022-12-13T00:59:21.737Z,0.80
2022-12-13T01:01:53.722Z,0.80
2022-12-13T01:04:26.879Z,0.80
2022-12-13T01:06:57.110Z,0.80
2022-12-13T01:09:32.692Z,0.80
2022-12-13T01:12:04.732Z,0.70
2022-12-13T01:14:37.651Z,0.70
2022-12-13T01:17:08.315Z,0.80
2022-12-13T01:19:41.338Z,0.70
2022-12-13T01:22:12.081Z,0.80
2022-12-13T01:24:42.405Z,0.80
2022-12-13T01:27:12.765Z,0.70
2022-12-13T01:29:43.137Z,0.80
2022-12-13T01:32:13.354Z,0.80
2022-12-13T01:34:46.245Z,0.80
2022-12-13T01:37:17.704Z,0.70
2022-12-13T01:39:47.994Z,0.70
2022-12-13T01:42:18.246Z,0.80
2022-12-13T01:45:06.372Z,0.80
2022-12-13T01:47:43.833Z,0.70
2022-12-13T01:50:21.778Z,0.70
2022-12-13T01:52:52.766Z,0.70
2022-12-13T01:55:24.227Z,0.70
2022-12-13T01:57:56.521Z,0.60
2022-12-13T02:00:28.605Z,0.70
2022-12-13T02:03:01.152Z,0.70
2022-12-13T02:05:39.212Z,0.60
2022-12-13T02:08:12.242Z,0.70
2022-12-13T02:10:43.392Z,0.60
2022-12-13T02:13:13.831Z,0.70
2022-12-13T02:15:58.606Z,0.60
2022-12-13T02:18:41.865Z,0.60
2022-12-13T02:21:34.846Z,0.50
2022-12-13T02:24:31.271Z,0.50
2022-12-13T02:27:30.839Z,0.60
2022-12-13T02:30:27.257Z,0.50
2022-12-13T02:33:21.792Z,0.50
2022-12-13T02:36:00.245Z,0.50
2022-12-13T02:38:37.884Z,0.60
2022-12-13T02:41:15.745Z,0.50
2022-12-13T02:43:52.398Z,0.50
2022-12-13T02:46:38.758Z,0.50
2022-12-13T02:49:11.947Z,0.50
2022-12-13T02:51:43.216Z,0.50
2022-12-13T02:54:13.524Z,0.50
2022-12-13T02:56:43.734Z,0.40
2022-12-13T02:59:17.760Z,0.50
2022-12-13T03:02:09.729Z,0.50
2022-12-13T03:05:04.284Z,0.60
2022-12-13T03:07:41.909Z,0.40
2022-12-13T03:10:20.292Z,0.40
2022-12-13T03:13:08.022Z,0.50
2022-12-13T03:15:45.285Z,0.40
2022-12-13T03:18:22.676Z,0.40
2022-12-13T03:20:55.476Z,0.30
2022-12-13T03:23:26.815Z,0.30
2022-12-13T03:26:01.855Z,0.30
2022-12-13T03:28:32.148Z,0.30
2022-12-13T03:31:02.430Z,0.40
2022-12-13T03:33:35.428Z,0.30
2022-12-13T03:36:06.162Z,0.30
2022-12-13T03:38:36.753Z,0.40
2022-12-13T03:41:11.105Z,0.30
2022-12-13T03:43:42.023Z,0.40
2022-12-13T03:46:13.028Z,0.40
2022-12-13T03:48:45.964Z,0.30
2022-12-13T03:51:16.392Z,0.30
2022-12-13T03:53:46.722Z,0.30
2022-12-13T03:56:17.189Z,0.40
2022-12-13T03:58:47.504Z,0.30
2022-12-13T04:01:19.492Z,0.30
2022-12-13T04:03:52.521Z,0.40
2022-12-13T04:06:24.672Z,0.40
2022-12-13T04:08:57.722Z,0.40
2022-12-13T04:11:42.977Z,0.30
2022-12-13T04:14:22.762Z,0.40
2022-12-13T04:16:54.465Z,0.40
2022-12-13T04:19:27.352Z,0.40
2022-12-13T04:21:57.792Z,0.30
2022-12-13T04:24:31.654Z,0.30
2022-12-13T04:27:03.450Z,0.30
2022-12-13T04:29:35.044Z,0.20
2022-12-13T04:32:26.639Z,0.30
2022-12-13T04:35:01.045Z,0.20
2022-12-13T04:37:31.909Z,0.20
2022-12-13T04:40:02.129Z,0.20
2022-12-13T04:42:32.462Z,0.30
2022-12-13T04:45:02.707Z,0.30
2022-12-13T04:47:33.104Z,0.30
2022-12-13T04:50:06.073Z,0.30
2022-12-13T04:52:37.561Z,0.30
2022-12-13T04:55:09.210Z,0.20
2022-12-13T04:57:39.547Z,0.30
2022-12-13T05:00:14.483Z,0.20
2022-12-13T05:02:45.210Z,0.10
2022-12-13T05:05:18.717Z,0.10
2022-12-13T05:07:49.303Z,0.10
2022-12-13T05:10:21.063Z,0.20
2022-12-13T05:13:08.303Z,0.10
2022-12-13T05:15:38.805Z,0.00
2022-12-13T05:18:11.128Z,0.10
2022-12-13T05:20:44.304Z,0.20
2022-12-13T05:23:14.632Z,0.00
2022-12-13T05:25:53.469Z,0.00
2022-12-13T05:28:28.905Z,0.00
2022-12-13T05:31:00.826Z,0.00
2022-12-13T05:33:31.129Z,-0.10
2022-12-13T05:36:04.043Z,-0.10
2022-12-13T05:38:34.722Z,-0.10
2022-12-13T05:41:04.985Z,-0.10
2022-12-13T05:43:42.438Z,-0.10
2022-12-13T05:46:14.527Z,-0.10
2022-12-13T05:48:44.892Z,-0.10
2022-12-13T05:51:17.814Z,-0.10
2022-12-13T05:53:53.142Z,-0.10
2022-12-13T05:56:24.242Z,-0.10
2022-12-13T05:58:54.779Z,-0.10
2022-12-13T06:01:25.409Z,-0.20
2022-12-13T06:03:55.860Z,-0.10
2022-12-13T06:06:28.839Z,-0.20
2022-12-13T06:08:59.141Z,-0.10
2022-12-13T06:11:31.908Z,-0.20
2022-12-13T06:14:02.881Z,-0.20
2022-12-13T06:16:33.175Z,-0.30
2022-12-13T06:19:04.731Z,-0.30
2022-12-13T06:21:41.188Z,-0.30
2022-12-13T06:24:19.858Z,-0.30
2022-12-13T06:26:50.865Z,-0.30
2022-12-13T06:29:25.734Z,-0.30
2022-12-13T06:32:03.290Z,-0.30
2022-12-13T06:34:36.253Z,-0.40
2022-12-13T06:37:11.130Z,-0.40
2022-12-13T06:39:41.813Z,-0.40
2022-12-13T06:42:22.135Z,-0.40
2022-12-13T06:44:55.735Z,-0.40
2022-12-13T06:47:31.916Z,-0.40
2022-12-13T06:50:05.660Z,-0.40
2022-12-13T06:52:39.244Z,-0.40
2022-12-13T06:55:10.391Z,-0.40
2022-12-13T06:57:41.051Z,-0.40
2022-12-13T07:00:13.133Z,-0.40
2022-12-13T07:02:43.548Z,-0.40
2022-12-13T07:05:14.068Z,-0.40
2022-12-13T07:07:49.740Z,-0.50
2022-12-13T07:10:22.573Z,-0.40
2022-12-13T07:12:53.529Z,-0.40
2022-12-13T07:15:23.847Z,-0.40
2022-12-13T07:17:54.648Z,-0.50
2022-12-13T07:20:25.001Z,-0.50
2022-12-13T07:22:59.271Z,-0.30
2022-12-13T07:25:29.870Z,-0.40
2022-12-13T07:28:02.896Z,-0.40
2022-12-13T07:30:40.927Z,-0.50
2022-12-13T07:33:12.220Z,-0.50
2022-12-13T07:35:43.313Z,-0.50
2022-12-13T07:38:16.377Z,-0.50
2022-12-13T07:40:47.020Z,-0.40
2022-12-13T07:43:19.157Z,-0.50
2022-12-13T07:45:49.778Z,-0.50
2022-12-13T07:48:20.053Z,-0.50
2022-12-13T07:50:54.416Z,-0.40
2022-12-13T07:53:27.709Z,-0.50
2022-12-13T07:56:04.340Z,-0.50
2022-12-13T07:58:35.550Z,-0.50
2022-12-13T08:01:08.092Z,-0.30
2022-12-13T08:03:39.287Z,-0.50
2022-12-13T08:06:11.445Z,-0.50
2022-12-13T08:08:44.432Z,-0.40
2022-12-13T08:11:17.549Z,-0.40
2022-12-13T08:13:48.025Z,-0.40
2022-12-13T08:16:26.607Z,-0.50
2022-12-13T08:19:03.060Z,-0.60
2022-12-13T08:21:55.718Z,-0.40
2022-12-13T08:24:31.596Z,-0.40
2022-12-13T08:27:04.837Z,-0.40
2022-12-13T08:29:37.175Z,-0.40
2022-12-13T08:32:09.754Z,-0.40
2022-12-13T08:34:41.422Z,-0.40
2022-12-13T08:37:11.770Z,-0.40
2022-12-13T08:39:45.076Z,-0.30
2022-12-13T08:42:19.365Z,-0.20
2022-12-13T08:44:52.772Z,-0.30
2022-12-13T08:47:26.388Z,-0.30
2022-12-13T08:50:02.024Z,-0.30
2022-12-13T08:52:40.070Z,-0.20
2022-12-13T08:55:18.184Z,-0.30
2022-12-13T08:57:51.801Z,-0.20
2022-12-13T09:00:23.976Z,-0.20
2022-12-13T09:02:54.936Z,-0.30
2022-12-13T09:05:34.332Z,-0.20
2022-12-13T09:08:23.378Z,-0.20
2022-12-13T09:11:10.605Z,-0.20
2022-12-13T09:13:52.043Z,-0.20
2022-12-13T09:16:25.472Z,-0.10
2022-12-13T09:18:57.154Z,-0.10
2022-12-13T09:21:31.642Z,-0.10
2022-12-13T09:24:03.668Z,0.00
2022-12-13T09:26:38.484Z,0.00
2022-12-13T09:29:10.758Z,0.00
2022-12-13T09:31:42.432Z,0.00
2022-12-13T09:34:13.666Z,0.00
2022-12-13T09:36:44.045Z,0.00
2022-12-13T09:39:14.575Z,0.10
2022-12-13T09:41:51.893Z,0.10
2022-12-13T09:44:42.771Z,0.20
2022-12-13T09:47:26.368Z,0.30
2022-12-13T09:49:56.988Z,0.40
2022-12-13T09:52:41.176Z,0.30
2022-12-13T09:55:23.689Z,0.30
2022-12-13T09:57:56.673Z,0.30
2022-12-13T10:00:31.360Z,0.40
2022-12-13T10:03:02.967Z,0.40
2022-12-13T10:05:39.565Z,0.40
2022-12-13T10:08:15.450Z,0.40
2022-12-13T10:10:46.519Z,0.50
2022-12-13T10:13:23.825Z,0.50
2022-12-13T10:16:00.448Z,0.50
2022-12-13T10:18:37.370Z,0.50
2022-12-13T10:21:13.040Z,0.50
2022-12-13T10:24:22.773Z,0.50
2022-12-13T10:26:39.744Z,0.50
2022-12-13T10:29:14.407Z,0.60
2022-12-13T10:31:47.256Z,0.60
2022-12-13T10:34:25.808Z,0.70
2022-12-13T10:36:59.490Z,0.70
2022-12-13T10:39:42.028Z,0.70
2022-12-13T10:42:22.846Z,0.60
2022-12-13T10:45:13.519Z,0.60
2022-12-13T10:47:47.158Z,0.80
2022-12-13T10:50:32.082Z,0.70
2022-12-13T10:53:03.834Z,0.70
2022-12-13T10:55:38.093Z,0.80
2022-12-13T10:58:13.115Z,0.90
2022-12-13T11:00:49.481Z,0.80
2022-12-13T11:03:33.919Z,1.00
2022-12-13T11:06:10.052Z,1.00
2022-12-13T11:08:40.671Z,1.00
2022-12-13T11:11:13.213Z,1.00
2022-12-13T11:13:48.268Z,1.10
2022-12-13T11:16:26.881Z,1.20
2022-12-13T11:18:59.112Z,1.20
2022-12-13T11:21:31.386Z,1.40
2022-12-13T11:24:05.559Z,1.50
2022-12-13T11:26:39.321Z,1.30
2022-12-13T11:29:51.238Z,1.30
2022-12-13T11:32:36.080Z,1.40
2022-12-13T11:35:17.608Z,1.40
2022-12-13T11:37:57.528Z,1.40
2022-12-13T11:40:32.051Z,1.60
2022-12-13T11:43:08.995Z,1.70
2022-12-13T11:45:44.803Z,1.50
2022-12-13T11:48:33.004Z,1.60
2022-12-13T11:51:04.816Z,1.60
2022-12-13T11:53:38.638Z,1.70
2022-12-13T11:56:14.756Z,1.70
2022-12-13T11:59:13.384Z,1.60
2022-12-13T12:01:47.281Z,1.70
2022-12-13T12:04:26.679Z,1.80
2022-12-13T12:07:18.153Z,1.90
2022-12-13T12:09:58.717Z,1.80
2022-12-13T12:12:35.313Z,1.90
2022-12-13T12:15:15.449Z,1.90
2022-12-13T12:17:47.147Z,1.90
2022-12-13T12:20:30.779Z,2.00
2022-12-13T12:23:14.702Z,1.90
2022-12-13T12:25:50.685Z,2.00
2022-12-13T12:28:31.863Z,2.00
2022-12-13T12:31:10.239Z,2.00
2022-12-13T12:34:30.246Z,2.10
2022-12-13T12:37:15.375Z,2.10
2022-12-13T12:40:09.149Z,2.20
2022-12-13T12:45:57.601Z,2.10
2022-12-13T12:49:02.732Z,2.20
2022-12-13T12:51:40.255Z,2.20
2022-12-13T12:54:32.193Z,2.20
2022-12-13T12:57:08.731Z,2.30
2022-12-13T12:59:49.961Z,2.20
2022-12-13T13:02:26.114Z,2.20
2022-12-13T13:05:02.092Z,2.20
2022-12-13T13:07:39.913Z,2.30
2022-12-13T13:10:16.345Z,2.20
2022-12-13T13:13:11.589Z,2.20
2022-12-13T13:16:00.021Z,2.20
2022-12-13T13:18:55.744Z,2.10
2022-12-13T13:21:47.720Z,2.20
2022-12-13T13:24:28.663Z,2.40
2022-12-13T13:27:31.143Z,2.20
2022-12-13T13:30:09.257Z,2.20
2022-12-13T13:32:43.387Z,2.30
2022-12-13T13:35:53.847Z,2.30
2022-12-13T13:38:52.471Z,2.30
2022-12-13T13:41:37.518Z,2.40
2022-12-13T13:44:55.885Z,2.40
2022-12-13T13:47:40.043Z,2.30
2022-12-13T13:50:40.634Z,2.30
2022-12-13T13:53:33.127Z,2.40
2022-12-13T13:56:19.555Z,2.40
2022-12-13T13:59:34.993Z,2.40
2022-12-13T14:02:44.675Z,2.30
2022-12-13T14:05:57.479Z,2.30
2022-12-13T14:08:44.046Z,2.40
2022-12-13T14:11:48.560Z,2.30
2022-12-13T14:15:10.002Z,2.20
2022-12-13T14:18:10.272Z,2.20
2022-12-13T14:20:58.197Z,2.30
2022-12-13T14:23:43.663Z,2.30
2022-12-13T14:26:27.022Z,2.30
2022-12-13T14:29:02.369Z,2.30
2022-12-13T14:31:39.750Z,2.30
2022-12-13T14:34:11.067Z,2.30
2022-12-13T14:36:42.972Z,2.40
2022-12-13T14:39:24.741Z,2.30
2022-12-13T14:41:58.847Z,2.40
2022-12-13T14:44:31.301Z,2.40
2022-12-13T14:47:08.126Z,2.30
2022-12-13T14:49:41.875Z,2.30
2022-12-13T14:52:26.705Z,2.30
2022-12-13T14:55:00.247Z,2.30
2022-12-13T14:57:32.902Z,2.20
2022-12-13T15:00:10.105Z,2.20
2022-12-13T15:02:54.204Z,2.30
2022-12-13T15:05:29.896Z,2.10
2022-12-13T15:08:10.872Z,2.20
2022-12-13T15:10:48.319Z,2.50
2022-12-13T15:13:31.477Z,2.50
2022-12-13T15:16:10.585Z,2.50
2022-12-13T15:18:50.589Z,2.50
2022-12-13T15:21:28.187Z,2.40
2022-12-13T15:24:06.054Z,2.30
2022-12-13T15:26:39.876Z,2.30
2022-12-13T15:29:11.704Z,2.20
2022-12-13T15:31:42.879Z,2.20
2022-12-13T15:34:39.420Z,2.20
2022-12-13T15:37:28.164Z,2.30
2022-12-13T15:40:03.901Z,2.20
2022-12-13T15:42:36.964Z,2.20
2022-12-13T15:45:10.793Z,2.20
2022-12-13T15:47:41.259Z,2.10
2022-12-13T15:50:36.597Z,2.20
2022-12-13T15:53:09.654Z,2.20
2022-12-13T15:55:40.545Z,2.20
2022-12-13T15:58:28.626Z,2.20
2022-12-13T16:01:05.518Z,2.10
2022-12-13T16:03:44.784Z,2.20
2022-12-13T16:06:25.944Z,2.20
2022-12-13T16:08:58.768Z,2.10
2022-12-13T16:11:32.220Z,2.10
2022-12-13T16:14:40.214Z,2.10
2022-12-13T16:17:26.166Z,2.10
2022-12-13T16:20:02.108Z,2.10
2022-12-13T16:22:39.212Z,2.20
2022-12-13T16:25:12.295Z,2.10
2022-12-13T16:27:42.829Z,2.00
2022-12-13T16:30:18.050Z,2.00
2022-12-13T16:33:18.785Z,2.10
2022-12-13T16:35:39.707Z,2.10
2022-12-13T16:38:26.016Z,2.00
2022-12-13T16:40:59.110Z,2.20
2022-12-13T16:43:34.237Z,2.10
2022-12-13T16:47:11.875Z,2.00
2022-12-13T16:48:57.884Z,2.00
2022-12-13T16:51:28.338Z,2.00
2022-12-13T16:54:01.169Z,2.20
2022-12-13T16:56:31.743Z,2.10
2022-12-13T16:59:02.102Z,2.10
2022-12-13T17:01:33.195Z,2.10
2022-12-13T17:04:10.372Z,2.10
2022-12-13T17:06:43.616Z,2.10
2022-12-13T17:09:16.516Z,2.10
2022-12-13T17:11:46.841Z,2.20
2022-12-13T17:14:17.709Z,2.10
2022-12-13T17:16:48.166Z,2.20
2022-12-13T17:19:18.505Z,2.10
2022-12-13T17:21:48.794Z,2.10
2022-12-13T17:24:21.759Z,2.00
2022-12-13T17:26:55.223Z,2.20
2022-12-13T17:29:26.796Z,2.10
2022-12-13T17:31:57.228Z,2.10
2022-12-13T17:34:28.966Z,2.10
2022-12-13T17:36:59.344Z,2.10
2022-12-13T17:39:32.296Z,2.10
2022-12-13T17:42:02.548Z,2.20
2022-12-13T17:44:32.837Z,2.10
2022-12-13T17:47:03.607Z,2.10
2022-12-13T17:49:33.859Z,2.10
2022-12-13T17:52:04.157Z,2.20
2022-12-13T17:54:37.151Z,2.10
2022-12-13T17:57:10.518Z,2.10
2022-12-13T17:59:43.128Z,2.10
2022-12-13T18:02:15.427Z,2.10
2022-12-13T18:04:45.934Z,2.00
2022-12-13T18:07:16.230Z,2.00
2022-12-13T18:09:49.429Z,2.00
2022-12-13T18:12:20.504Z,2.00
2022-12-13T18:14:51.078Z,2.00
2022-12-13T18:17:22.648Z,2.10
2022-12-13T18:20:01.167Z,2.10
2022-12-13T18:22:33.507Z,2.10
2022-12-13T18:25:12.010Z,2.10
2022-12-13T18:27:42.414Z,2.10
2022-12-13T18:30:14.273Z,2.10
2022-12-13T18:32:44.631Z,2.10
2022-12-13T18:35:14.943Z,2.00
2022-12-13T18:37:45.302Z,2.10
2022-12-13T18:40:18.367Z,2.00
2022-12-13T18:42:48.698Z,2.10
2022-12-13T18:45:19.935Z,2.00
2022-12-13T18:47:50.280Z,2.00
2022-12-13T18:50:20.778Z,2.00
2022-12-13T18:52:51.158Z,2.00
2022-12-13T18:55:24.162Z,2.00
2022-12-13T18:57:54.769Z,2.00
2022-12-13T19:00:27.084Z,1.90
2022-12-13T19:02:59.126Z,2.00
2022-12-13T19:05:29.767Z,2.00
2022-12-13T19:08:00.106Z,2.00
2022-12-13T19:10:33.146Z,2.00
2022-12-13T19:13:03.880Z,2.00
2022-12-13T19:15:34.352Z,1.90
2022-12-13T19:18:04.908Z,1.90
2022-12-13T19:20:35.233Z,1.90
2022-12-13T19:23:05.613Z,1.90
2022-12-13T19:25:39.082Z,1.90
2022-12-13T19:28:10.091Z,2.20
2022-12-13T19:30:40.463Z,2.10
2022-12-13T19:33:11.149Z,2.10
2022-12-13T19:35:43.296Z,1.90
2022-12-13T19:38:14.143Z,2.00
2022-12-13T19:40:47.136Z,1.90
2022-12-13T19:43:17.460Z,1.90
2022-12-13T19:45:48.408Z,1.90
2022-12-13T19:48:19.248Z,1.80
2022-12-13T19:50:49.566Z,1.80
2022-12-13T19:53:20.359Z,1.80
2022-12-13T19:55:53.254Z,1.90
2022-12-13T19:58:23.704Z,1.70
2022-12-13T20:00:54.083Z,1.70
2022-12-13T20:03:24.829Z,1.70
2022-12-13T20:06:00.415Z,1.70
2022-12-13T20:08:30.788Z,1.70
2022-12-13T20:11:08.422Z,1.70
2022-12-13T20:13:39.998Z,1.70
2022-12-13T20:16:10.919Z,1.80
2022-12-13T20:18:41.420Z,1.70
2022-12-13T20:21:14.886Z,1.70
2022-12-13T20:23:49.427Z,1.70
2022-12-13T20:26:24.643Z,1.80
2022-12-13T20:28:55.224Z,1.70
2022-12-13T20:31:27.478Z,1.80
2022-12-13T20:33:58.706Z,1.60
2022-12-13T20:36:30.762Z,1.70
2022-12-13T20:39:02.886Z,1.70
2022-12-13T20:41:37.919Z,1.70
2022-12-13T20:44:11.162Z,1.60
2022-12-13T20:46:41.820Z,1.70
2022-12-13T20:49:12.866Z,1.70
2022-12-13T20:51:44.873Z,1.60
2022-12-13T20:54:15.303Z,1.60
2022-12-13T20:56:48.306Z,1.80
2022-12-13T20:59:18.960Z,1.60
2022-12-13T21:01:49.561Z,1.60
2022-12-13T21:04:20.069Z,1.60
2022-12-13T21:06:50.451Z,1.70
2022-12-13T21:09:20.709Z,1.60
2022-12-13T21:11:53.778Z,1.80
2022-12-13T21:14:25.906Z,1.60
2022-12-13T21:16:57.941Z,1.60
2022-12-13T21:19:34.423Z,1.60
2022-12-13T21:22:06.479Z,1.60
2022-12-13T21:24:37.003Z,1.60
2022-12-13T21:27:11.664Z,1.60
2022-12-13T21:29:42.206Z,1.60
2022-12-13T21:32:12.708Z,1.70
2022-12-13T21:34:43.641Z,1.60
2022-12-13T21:37:13.885Z,1.70
2022-12-13T21:39:44.223Z,1.60
2022-12-13T21:42:17.153Z,1.70
2022-12-13T21:44:47.520Z,1.50
2022-12-13T21:47:17.892Z,1.60
2022-12-13T21:49:48.954Z,1.50
2022-12-13T21:52:19.992Z,1.50
2022-12-13T21:54:52.942Z,1.50
2022-12-13T21:57:45.475Z,1.60
2022-12-13T22:00:17.710Z,1.50
2022-12-13T22:02:47.985Z,1.50
2022-12-13T22:05:18.384Z,1.50
2022-12-13T22:07:48.690Z,1.60
2022-12-13T22:10:19.225Z,1.50
2022-12-13T22:12:52.215Z,1.90
2022-12-13T22:15:22.639Z,2.20
2022-12-13T22:17:53.656Z,2.20
2022-12-13T22:20:25.182Z,2.20
2022-12-13T22:22:57.080Z,1.90
2022-12-13T22:25:29.427Z,1.70
2022-12-13T22:28:03.366Z,1.60
2022-12-13T22:30:36.845Z,1.60
2022-12-13T22:33:09.442Z,1.60
2022-12-13T22:35:42.820Z,1.70
2022-12-13T22:38:14.660Z,1.50
2022-12-13T22:40:46.944Z,1.50
2022-12-13T22:43:20.897Z,1.50
2022-12-13T22:45:52.167Z,1.40
2022-12-13T22:48:24.902Z,1.40
2022-12-13T22:50:56.155Z,1.40
2022-12-13T22:53:26.861Z,1.40
2022-12-13T22:55:59.253Z,1.40
2022-12-13T22:58:34.097Z,1.40
2022-12-13T23:01:14.120Z,1.30
2022-12-13T23:03:46.475Z,1.30
2022-12-13T23:06:21.067Z,1.20
2022-12-13T23:08:55.170Z,1.20
2022-12-13T23:11:39.718Z,1.20
2022-12-13T23:14:15.917Z,1.30
2022-12-13T23:16:48.273Z,1.20
2022-12-13T23:22:13.989Z,1.10
2022-12-13T23:24:46.659Z,1.10
2022-12-13T23:27:17.699Z,1.10
2022-12-13T23:29:51.461Z,1.10
2022-12-13T23:32:23.503Z,1.10
2022-12-13T23:34:55.353Z,1.00
2022-12-13T23:37:26.434Z,1.00
2022-12-13T23:39:58.120Z,0.90
2022-12-13T23:42:32.909Z,0.90
2022-12-13T23:45:07.082Z,1.00
2022-12-13T23:47:39.117Z,1.00
2022-12-13T23:50:12.550Z,0.90
2022-12-13T23:52:44.498Z,0.90
2022-12-13T23:55:16.142Z,0.90
2022-12-13T23:57:48.766Z,0.90
